Time;durP1;ratioP1;P1;durP2;ratioP2;P2;SDS_P1;SDS_P2;PMS_P1;PMS_P2;Temp;Humidity;BMP_temperature;BMP_pressure;BME280_temperature;BME280_humidity;BME280_pressure;Samples;Min_cycle;Max_cycle;Signal;HPM_P1;HPM_P2
2022/06/16 00:01:34;;;;;;;14.98;5.38;;;;;;;16.77;76.11;100698.38;6210922;23;20024;-71
2022/06/16 00:04:00;;;;;;;13.05;4.65;;;;;;;16.77;75.61;100694.84;6211476;23;20020;-71
2022/06/16 00:06:26;;;;;;;15.27;4.65;;;;;;;16.70;75.62;100685.69;6211122;23;20012;-71
2022/06/16 00:08:51;;;;;;;9.40;4.10;;;;;;;16.74;75.55;100696.03;6211139;23;20008;-71
2022/06/16 00:11:17;;;;;;;13.85;4.70;;;;;;;16.56;75.63;100673.63;6210853;23;20008;-71
2022/06/16 00:13:42;;;;;;;10.48;4.65;;;;;;;16.68;75.79;100695.84;6211424;23;20083;-71
2022/06/16 00:16:09;;;;;;;13.02;3.97;;;;;;;16.71;75.56;100693.66;6211135;23;20016;-71
2022/06/16 00:18:36;;;;;;;14.00;4.40;;;;;;;16.61;75.27;100675.84;6210940;23;20007;-71
2022/06/16 00:21:03;;;;;;;10.93;3.95;;;;;;;16.66;75.14;100685.16;6211126;23;20008;-71
2022/06/16 00:23:29;;;;;;;14.07;4.30;;;;;;;16.65;75.16;100688.91;6211166;23;20030;-70
2022/06/16 00:25:54;;;;;;;17.70;4.20;;;;;;;16.60;75.29;100688.53;6211183;23;20004;-71
2022/06/16 00:28:20;;;;;;;12.05;4.18;;;;;;;16.53;75.07;100684.78;6210760;23;20091;-71
2022/06/16 00:30:46;;;;;;;11.25;3.92;;;;;;;16.49;75.29;100682.56;6211312;23;20082;-72
2022/06/16 00:33:12;;;;;;;10.18;4.55;;;;;;;16.41;75.32;100688.75;6210954;23;20016;-71
2022/06/16 00:35:37;;;;;;;9.50;3.88;;;;;;;16.33;75.44;100677.03;6184374;23;20009;-71
2022/06/16 00:38:03;;;;;;;11.20;4.40;;;;;;;16.38;75.57;100685.53;6210962;23;20076;-71
2022/06/16 00:40:28;;;;;;;11.55;4.00;;;;;;;16.36;75.82;100680.28;6211231;23;20001;-71
2022/06/16 00:42:54;;;;;;;7.72;4.03;;;;;;;16.35;75.90;100675.88;6211217;23;20417;-71
2022/06/16 00:45:47;;;;;;;18.08;4.70;;;;;;;16.34;75.99;100673.34;6210617;23;20092;-70
2022/06/16 00:48:16;;;;;;;18.85;4.75;;;;;;;16.33;75.91;100674.34;6209040;23;20350;-71
2022/06/16 00:50:44;;;;;;;21.65;5.38;;;;;;;16.34;76.14;100670.66;6210982;23;20173;-71
2022/06/16 00:53:10;;;;;;;25.13;5.43;;;;;;;16.33;76.24;100677.03;6210994;23;20485;-71
2022/06/16 00:55:35;;;;;;;10.90;4.35;;;;;;;16.26;75.99;100655.22;6183653;23;20008;-71
2022/06/16 00:58:02;;;;;;;13.20;4.40;;;;;;;16.33;76.20;100668.94;6210974;23;20012;-70
2022/06/16 01:02:54;;;;;;;12.25;4.70;;;;;;;16.28;76.26;100658.59;6214617;23;20445;-72
2022/06/16 01:05:20;;;;;;;13.60;4.10;;;;;;;16.22;76.01;100652.97;6210732;23;20004;-71
2022/06/16 01:07:47;;;;;;;19.35;4.18;;;;;;;16.24;76.16;100653.66;6210822;23;20409;-71
2022/06/16 01:10:15;;;;;;;9.85;4.32;;;;;;;16.23;76.61;100658.25;6210672;23;20055;-72
2022/06/16 01:16:35;;;;;;;9.95;4.25;;;;;;;16.17;74.88;100648.06;6210724;23;20023;-71
2022/06/16 01:19:32;;;;;;;12.45;3.80;;;;;;;16.12;75.10;100644.16;6210757;23;20005;-70
2022/06/16 01:22:14;;;;;;;11.43;4.18;;;;;;;16.07;75.45;100654.59;6211319;23;20039;-71
2022/06/16 01:25:07;;;;;;;9.18;4.03;;;;;;;15.98;75.63;100642.88;6210687;23;20004;-71
2022/06/16 01:28:08;;;;;;;12.82;4.10;;;;;;;15.92;76.19;100648.94;6210427;23;20019;-71
2022/06/16 01:30:43;;;;;;;13.90;3.80;;;;;;;15.87;76.62;100637.75;6171589;23;20047;-71
2022/06/16 01:33:25;;;;;;;13.65;4.38;;;;;;;15.87;76.82;100646.72;6210536;23;20549;-71
2022/06/16 01:35:56;;;;;;;11.10;3.95;;;;;;;15.81;77.23;100647.34;6210805;23;20023;-70
2022/06/16 01:38:38;;;;;;;11.43;3.78;;;;;;;15.79;77.71;100635.84;6210326;23;20672;-71
2022/06/16 01:41:03;;;;;;;13.95;4.28;;;;;;;15.80;78.33;100636.69;6210767;23;20027;-70
2022/06/16 01:43:35;;;;;;;9.32;3.50;;;;;;;15.80;78.06;100634.84;6210899;23;20429;-71
2022/06/16 01:46:12;;;;;;;8.45;3.83;;;;;;;15.80;78.25;100647.50;6210950;23;20137;-72
2022/06/16 01:48:41;;;;;;;10.43;4.72;;;;;;;15.79;78.11;100635.84;6210572;23;20379;-71
2022/06/16 01:51:33;;;;;;;10.00;4.22;;;;;;;15.77;77.87;100643.28;6216650;23;20004;-71
2022/06/16 01:54:08;;;;;;;11.77;4.88;;;;;;;15.75;77.63;100633.63;6213537;23;20397;-71
2022/06/16 01:56:55;;;;;;;11.20;4.00;;;;;;;15.72;77.39;100634.81;6213007;23;20000;-71
2022/06/16 01:59:27;;;;;;;7.13;3.80;;;;;;;15.68;77.78;100638.81;6213312;23;20005;-71
2022/06/16 02:01:59;;;;;;;10.73;4.50;;;;;;;15.66;77.78;100635.44;6213289;23;20044;-71
2022/06/16 02:04:36;;;;;;;13.70;4.18;;;;;;;15.63;77.75;100637.59;6212851;23;20012;-71
2022/06/16 02:07:08;;;;;;;10.52;4.57;;;;;;;15.60;78.34;100644.19;6214220;23;20012;-71
2022/06/16 02:09:43;;;;;;;10.40;4.50;;;;;;;15.57;77.96;100630.13;6215362;23;20468;-71
2022/06/16 02:12:55;;;;;;;12.80;4.38;;;;;;;15.51;77.73;100628.91;6215373;23;20349;-71
2022/06/16 02:15:04;;;;;;;9.88;4.45;;;;;;;15.44;78.23;100621.59;6215198;23;20013;-70
2022/06/16 02:17:29;;;;;;;15.02;5.07;;;;;;;15.38;78.54;100624.94;6215319;23;20101;-71
2022/06/16 02:19:55;;;;;;;26.40;5.25;;;;;;;15.42;78.94;100627.16;6213639;23;20008;-71
2022/06/16 02:22:21;;;;;;;30.52;5.10;;;;;;;15.37;79.15;100618.69;6211930;23;20015;-71
2022/06/16 02:24:46;;;;;;;18.15;4.72;;;;;;;15.40;79.03;100631.03;6212484;23;20012;-71
2022/06/16 02:27:11;;;;;;;13.02;4.38;;;;;;;15.28;79.04;100608.78;6212050;23;20004;-71
2022/06/16 02:29:39;;;;;;;18.35;4.72;;;;;;;15.23;78.82;100607.56;6212125;23;20078;-71
2022/06/16 02:32:23;;;;;;;16.00;4.18;;;;;;;15.36;78.95;100632.31;6212032;23;20017;-72
2022/06/16 02:35:05;;;;;;;11.05;4.50;;;;;;;15.20;79.34;100608.72;6211762;23;20326;-71
2022/06/16 02:37:52;;;;;;;11.07;4.50;;;;;;;15.30;79.41;100631.09;6212211;23;20008;-71
2022/06/16 02:40:24;;;;;;;11.00;4.40;;;;;;;15.28;79.50;100629.53;6212226;23;20092;-70
2022/06/16 02:43:11;;;;;;;9.18;4.03;;;;;;;15.26;79.54;100629.69;6212160;23;20015;-71
2022/06/16 02:45:55;;;;;;;9.82;4.40;;;;;;;15.23;79.55;100627.34;6212281;23;20092;-70
2022/06/16 02:48:28;;;;;;;10.32;3.92;;;;;;;15.20;79.27;100624.94;6212011;23;20014;-71
2022/06/16 02:51:03;;;;;;;12.15;4.35;;;;;;;15.15;79.50;100631.78;6212259;23;20449;-70
2022/06/16 02:56:36;;;;;;;11.90;5.00;;;;;;;15.13;80.20;100626.53;6212387;23;20016;-71
2022/06/16 02:59:10;;;;;;;9.23;3.85;;;;;;;15.10;80.69;100628.72;6212618;23;20008;-71
2022/06/16 03:01:36;;;;;;;;;;;;;;;14.99;80.93;100618.19;6212418;23;20437;-71
2022/06/16 03:04:14;;;;;;;11.52;4.70;;;;;;;15.10;80.80;100639.53;6212115;23;19912;-70
2022/06/16 03:06:41;;;;;;;8.23;4.35;;;;;;;15.12;81.68;100634.84;6185603;23;20354;-70
2022/06/16 03:09:07;;;;;;;9.65;4.95;;;;;;;15.09;81.50;100635.16;6211768;23;20005;-71
2022/06/16 03:11:34;;;;;;;15.82;4.72;;;;;;;15.10;81.70;100635.00;6211997;23;20012;-70
2022/06/16 03:14:00;;;;;;;11.60;4.68;;;;;;;15.10;81.26;100636.84;6212351;23;20008;-71
2022/06/16 03:16:26;;;;;;;9.70;3.67;;;;;;;15.11;80.68;100639.38;6211838;23;20078;-70
2022/06/16 03:18:51;;;;;;;9.85;4.20;;;;;;;15.11;80.22;100639.38;6211779;23;20010;-70
2022/06/16 03:21:17;;;;;;;11.60;4.68;;;;;;;15.10;80.24;100640.41;6211886;23;20013;-70
2022/06/16 03:23:42;;;;;;;9.27;3.97;;;;;;;15.04;80.18;100630.19;6211923;23;20035;-70
2022/06/16 03:26:08;;;;;;;7.38;4.85;;;;;;;15.10;80.78;100645.78;6212059;23;20014;-71
2022/06/16 03:28:34;;;;;;;13.45;5.18;;;;;;;15.16;81.11;100645.16;6211800;23;20306;-70
2022/06/16 03:31:00;;;;;;;14.48;4.93;;;;;;;15.21;81.41;100642.84;6212136;23;20016;-70
2022/06/16 03:33:25;;;;;;;13.63;5.40;;;;;;;15.28;81.34;100637.63;6211771;23;20062;-70
2022/06/16 03:35:51;;;;;;;12.50;5.15;;;;;;;15.35;81.25;100638.75;6212226;23;20016;-70
2022/06/16 03:40:49;;;;;;;12.40;4.65;;;;;;;15.53;80.68;100648.53;6212429;23;20012;-70
2022/06/16 03:43:14;;;;;;;13.75;4.88;;;;;;;15.62;80.02;100631.38;6185067;23;20009;-71
2022/06/16 03:45:40;;;;;;;9.77;4.65;;;;;;;15.77;79.56;100635.16;6211771;23;20027;-70
2022/06/16 03:48:06;;;;;;;8.68;4.28;;;;;;;15.88;78.39;100636.75;6213540;23;20009;-69
2022/06/16 03:50:31;;;;;;;16.50;4.80;;;;;;;16.03;77.84;100634.28;6212472;23;20009;-71
2022/06/16 03:52:57;;;;;;;12.50;4.88;;;;;;;16.20;77.06;100642.31;6214889;23;20053;-71
2022/06/16 03:55:23;;;;;;;11.65;4.00;;;;;;;16.32;76.46;100632.91;6214651;23;20013;-71
2022/06/16 03:57:50;;;;;;;25.70;4.88;;;;;;;16.39;75.53;100622.25;6214369;23;20064;-70
2022/06/16 04:00:16;;;;;;;7.10;4.15;;;;;;;16.62;75.29;100640.47;6214468;23;20004;-70
2022/06/16 04:02:41;;;;;;;10.05;4.53;;;;;;;16.76;74.85;100645.22;6214236;23;20023;-70
2022/06/16 04:05:08;;;;;;;10.57;4.20;;;;;;;16.87;73.97;100630.53;6213866;23;20000;-71
2022/06/16 04:07:34;;;;;;;8.52;4.05;;;;;;;17.09;73.49;100640.72;6187803;23;20005;-70
2022/06/16 04:10:00;;;;;;;10.32;4.05;;;;;;;17.17;72.93;100636.16;6214484;23;20008;-71
2022/06/16 04:12:25;;;;;;;8.65;4.30;;;;;;;17.33;72.13;100641.56;6186864;23;20043;-71
2022/06/16 04:14:50;;;;;;;17.02;5.15;;;;;;;17.47;72.26;100640.06;6214589;23;20385;-70
2022/06/16 04:17:16;;;;;;;24.10;5.20;;;;;;;17.61;72.74;100637.50;6215227;23;20453;-71
2022/06/16 04:20:11;;;;;;;8.35;4.03;;;;;;;17.77;71.65;100642.88;6214656;23;20008;-71
2022/06/16 04:22:27;;;;;;;11.40;4.80;;;;;;;17.92;70.68;100640.31;6213905;23;20075;-73
2022/06/16 04:24:53;;;;;;;17.65;4.63;;;;;;;18.05;69.33;100640.59;6214575;23;20051;-71
2022/06/16 04:27:18;;;;;;;8.27;4.63;;;;;;;18.13;68.66;100620.72;6214737;23;20450;-71
2022/06/16 04:29:44;;;;;;;15.70;4.93;;;;;;;18.38;68.21;100628.63;6214567;23;20001;-71
2022/06/16 04:32:10;;;;;;;13.68;4.45;;;;;;;18.57;67.44;100630.91;6214982;23;20016;-71
2022/06/16 04:34:36;;;;;;;14.25;4.82;;;;;;;18.74;67.35;100631.66;6214516;23;20027;-70
2022/06/16 04:37:01;;;;;;;11.05;4.80;;;;;;;18.93;66.96;100623.88;6214731;23;20008;-71
2022/06/16 04:39:27;;;;;;;17.10;4.97;;;;;;;19.11;66.41;100627.16;6214803;23;20309;-71
2022/06/16 04:41:52;;;;;;;29.50;5.47;;;;;;;19.28;65.92;100623.28;6214691;23;20000;-71
2022/06/16 04:44:17;;;;;;;13.82;4.43;;;;;;;19.54;64.76;100631.06;6214536;23;20005;-71
2022/06/16 04:46:43;;;;;;;14.65;4.53;;;;;;;19.67;63.76;100621.22;6213417;23;20019;-71
2022/06/16 04:49:09;;;;;;;18.77;4.82;;;;;;;19.85;63.22;100618.16;6213812;23;20013;-71
2022/06/16 04:51:35;;;;;;;12.75;4.80;;;;;;;20.06;62.96;100616.34;6213539;23;20004;-71
2022/06/16 04:54:01;;;;;;;15.43;4.38;;;;;;;20.31;62.51;100614.22;6214053;23;20000;-71
2022/06/16 04:56:26;;;;;;;12.35;3.92;;;;;;;20.52;62.39;100616.16;6213830;23;20450;-71
2022/06/16 04:58:51;;;;;;;11.75;3.63;;;;;;;20.67;61.85;100617.81;6213757;23;20032;-72
2022/06/16 05:01:17;;;;;;;12.57;4.35;;;;;;;20.92;60.79;100629.22;6213687;23;20066;-71
2022/06/16 05:03:42;;;;;;;15.70;3.38;;;;;;;21.09;60.82;100619.78;6212081;23;20027;-71
2022/06/16 05:06:08;;;;;;;15.30;4.65;;;;;;;21.20;60.52;100611.06;6213326;23;20075;-72
2022/06/16 05:08:33;;;;;;;18.88;4.65;;;;;;;21.51;60.46;100626.00;6213550;23;20254;-71
2022/06/16 05:10:59;;;;;;;14.27;3.95;;;;;;;21.67;59.73;100623.00;6213727;23;20372;-71
2022/06/16 05:13:24;;;;;;;8.57;3.28;;;;;;;21.94;58.79;100630.38;6214200;23;20495;-71
2022/06/16 05:15:53;;;;;;;11.93;3.80;;;;;;;22.15;58.03;100626.69;6213835;23;20027;-71
2022/06/16 05:18:18;;;;;;;17.15;3.83;;;;;;;22.33;57.73;100624.28;6213422;23;20004;-71
2022/06/16 05:20:44;;;;;;;15.82;3.38;;;;;;;22.56;56.22;100616.63;6213559;23;20027;-70
2022/06/16 05:23:10;;;;;;;14.35;3.50;;;;;;;22.78;54.83;100615.47;6213606;23;20080;-71
2022/06/16 05:25:36;;;;;;;13.70;3.15;;;;;;;22.96;54.09;100606.66;6213242;23;20062;-71
2022/06/16 05:28:02;;;;;;;9.65;3.05;;;;;;;23.21;52.51;100615.97;6213729;23;20012;-71
2022/06/16 05:30:28;;;;;;;13.40;3.40;;;;;;;23.40;51.10;100621.47;6213605;23;20393;-71
2022/06/16 05:32:53;;;;;;;14.23;3.00;;;;;;;23.58;50.24;100607.16;6213651;23;20012;-71
2022/06/16 05:35:19;;;;;;;15.73;3.85;;;;;;;23.83;50.48;100608.19;6213558;23;20007;-71
2022/06/16 05:37:44;;;;;;;12.38;2.67;;;;;;;24.02;49.93;100608.16;6213620;23;19997;-71
2022/06/16 05:40:10;;;;;;;12.02;3.08;;;;;;;24.16;48.71;100598.88;6213464;23;20007;-71
2022/06/16 05:42:36;;;;;;;12.52;3.20;;;;;;;24.39;48.21;100601.97;6213565;23;20410;-70
2022/06/16 05:45:01;;;;;;;4.35;2.80;;;;;;;24.57;46.82;100601.25;6213795;23;20015;-71
2022/06/16 05:47:27;;;;;;;8.55;3.55;;;;;;;24.69;46.61;100587.72;6213370;23;20013;-72
2022/06/16 05:49:52;;;;;;;11.90;3.03;;;;;;;24.97;46.36;100605.47;6213537;23;20012;-71
2022/06/16 05:52:21;;;;;;;7.20;2.47;;;;;;;25.15;44.67;100599.25;6213333;23;20012;-71
2022/06/16 05:54:47;;;;;;;9.23;2.55;;;;;;;25.31;43.70;100595.97;6213254;23;20012;-71
2022/06/16 05:57:13;;;;;;;7.53;2.60;;;;;;;25.47;42.91;100606.41;6213679;23;20004;-70
2022/06/16 05:59:39;;;;;;;5.85;2.35;;;;;;;25.58;43.04;100598.28;6213238;23;20083;-71
2022/06/16 06:02:10;;;;;;;9.93;2.20;;;;;;;25.74;42.99;100607.84;6213628;23;20355;-71
2022/06/16 06:04:36;;;;;;;5.93;2.30;;;;;;;25.88;41.08;100603.91;6213464;23;20001;-71
2022/06/16 06:07:01;;;;;;;6.57;2.13;;;;;;;25.99;40.25;100592.22;6213495;23;20008;-71
2022/06/16 06:17:41;;;;;;;3.65;2.20;;;;;;;26.78;38.35;100586.56;6213642;23;20099;-72
2022/06/16 06:20:07;;;;;;;9.27;2.33;;;;;;;26.94;38.24;100592.28;6213813;23;20005;-72
2022/06/16 06:22:33;;;;;;;5.10;2.10;;;;;;;27.11;38.05;100586.97;6213623;23;20005;-72
2022/06/16 06:24:58;;;;;;;7.18;2.15;;;;;;;27.29;37.28;100598.75;6213225;23;20009;-72
2022/06/16 06:27:26;;;;;;;4.88;1.88;;;;;;;27.44;36.95;100599.13;6213410;23;20070;-72
2022/06/16 06:29:52;;;;;;;5.75;1.67;;;;;;;27.55;36.07;100597.47;6187059;23;20068;-73
2022/06/16 06:32:20;;;;;;;8.93;2.75;;;;;;;27.67;36.47;100596.44;6186575;23;20433;-73
2022/06/16 06:34:46;;;;;;;4.43;1.77;;;;;;;27.75;36.05;100590.53;6213671;23;20001;-72
2022/06/16 06:37:14;;;;;;;5.68;1.63;;;;;;;28.03;35.80;100606.38;6213574;23;20063;-72
2022/06/16 06:39:40;;;;;;;4.45;1.60;;;;;;;28.10;35.60;100599.69;6213567;23;20008;-72
2022/06/16 06:42:06;;;;;;;5.22;1.42;;;;;;;28.22;34.50;100596.91;6211477;23;20104;-73
2022/06/16 06:44:32;;;;;;;3.42;1.42;;;;;;;28.29;33.90;100606.72;6211257;23;20032;-72
2022/06/16 06:46:58;;;;;;;3.75;1.60;;;;;;;28.44;33.55;100603.44;6211218;23;20091;-72
2022/06/16 06:49:23;;;;;;;2.80;1.50;;;;;;;28.53;32.70;100604.75;6211101;23;20484;-73
2022/06/16 06:51:49;;;;;;;3.35;1.58;;;;;;;28.54;33.53;100609.22;6211235;23;20469;-72
2022/06/16 06:54:15;;;;;;;4.82;1.95;;;;;;;28.58;33.66;100590.22;6211975;23;20075;-72
2022/06/16 06:56:41;;;;;;;3.25;1.77;;;;;;;28.70;33.59;100602.94;6212947;23;20083;-72
2022/06/16 06:59:13;;;;;;;4.80;2.03;;;;;;;28.79;32.83;100600.59;6213199;23;20100;-72
2022/06/16 07:01:39;;;;;;;5.18;1.70;;;;;;;28.85;32.92;100597.69;6212805;23;20017;-72
2022/06/16 07:04:05;;;;;;;6.40;1.55;;;;;;;28.96;33.26;100598.72;6213065;23;20009;-72
2022/06/16 07:06:31;;;;;;;3.03;1.58;;;;;;;29.01;32.66;100594.13;6212613;23;20311;-72
2022/06/16 07:08:56;;;;;;;5.88;1.88;;;;;;;29.08;32.98;100589.31;6212658;23;20066;-73
2022/06/16 07:11:22;;;;;;;4.82;1.80;;;;;;;29.17;32.98;100592.53;6212538;23;20012;-71
2022/06/16 07:13:48;;;;;;;2.85;1.73;;;;;;;29.26;32.05;100591.00;6185978;23;20018;-72
2022/06/16 07:16:13;;;;;;;2.30;1.40;;;;;;;29.37;31.70;100582.66;6212508;23;20031;-72
2022/06/16 07:18:39;;;;;;;3.25;1.52;;;;;;;29.55;31.43;100589.84;6212415;23;19997;-72
2022/06/16 07:21:05;;;;;;;3.70;1.90;;;;;;;29.62;31.57;100590.56;6212834;23;20084;-72
2022/06/16 07:23:31;;;;;;;2.28;1.30;;;;;;;29.70;31.90;100582.69;6212362;23;20012;-72
2022/06/16 07:25:56;;;;;;;6.38;1.45;;;;;;;29.73;31.39;100567.50;6212470;23;20088;-72
2022/06/16 07:28:22;;;;;;;6.80;1.75;;;;;;;29.96;30.41;100586.66;6211886;23;20421;-71
2022/06/16 07:30:47;;;;;;;4.78;1.70;;;;;;;29.97;29.76;100572.59;6212316;23;20008;-70
2022/06/16 07:33:13;;;;;;;4.43;1.50;;;;;;;30.10;29.86;100586.06;6212270;23;20614;-71
2022/06/16 07:35:43;;;;;;;2.15;1.40;;;;;;;30.15;29.87;100585.28;6210646;23;20021;-72
2022/06/16 07:38:09;;;;;;;6.30;1.60;;;;;;;30.19;29.82;100575.41;6212364;23;20333;-72
2022/06/16 07:40:35;;;;;;;2.75;1.45;;;;;;;30.25;30.30;100569.66;6212070;23;20004;-72
2022/06/16 07:43:00;;;;;;;4.00;1.30;;;;;;;30.32;29.39;100570.34;6212438;23;20039;-71
2022/06/16 07:45:28;;;;;;;9.15;1.50;;;;;;;30.53;28.27;100574.16;6212040;23;20127;-71
2022/06/16 07:47:55;;;;;;;3.50;1.60;;;;;;;30.53;28.18;100571.41;6211899;23;20038;-71
2022/06/16 07:50:21;;;;;;;3.08;1.42;;;;;;;30.52;28.20;100565.03;6211908;23;20070;-71
2022/06/16 07:52:46;;;;;;;4.55;1.63;;;;;;;30.61;28.30;100579.25;6212095;23;20008;-71
2022/06/16 07:55:12;;;;;;;6.22;1.42;;;;;;;30.71;27.95;100579.38;6212103;23;20035;-71
2022/06/16 07:57:43;;;;;;;4.13;1.20;;;;;;;30.85;27.54;100577.09;6211821;23;20008;-72
2022/06/16 08:00:11;;;;;;;2.40;1.45;;;;;;;30.82;27.46;100575.66;6212368;23;20449;-71
2022/06/16 08:02:37;;;;;;;5.13;1.45;;;;;;;30.86;27.66;100578.75;6185448;23;20048;-71
2022/06/16 08:05:03;;;;;;;2.28;1.20;;;;;;;30.93;26.98;100576.59;6211923;23;20345;-71
2022/06/16 08:07:29;;;;;;;1.95;1.20;;;;;;;30.94;27.20;100589.34;6211804;23;20000;-71
2022/06/16 08:09:54;;;;;;;4.38;1.23;;;;;;;30.98;27.26;100579.44;6185496;23;20031;-71
2022/06/16 08:12:20;;;;;;;7.40;1.48;;;;;;;31.01;26.89;100576.16;6211719;23;20066;-71
2022/06/16 08:14:47;;;;;;;3.70;1.45;;;;;;;31.09;26.35;100582.06;6211992;23;20036;-71
2022/06/16 08:17:17;;;;;;;3.40;1.15;;;;;;;31.03;26.23;100569.25;6211905;23;20050;-71
2022/06/16 08:19:43;;;;;;;2.85;1.50;;;;;;;31.15;25.86;100580.16;6212360;23;20447;-71
2022/06/16 08:22:09;;;;;;;3.05;1.20;;;;;;;31.08;26.30;100572.03;6212523;23;20000;-71
2022/06/16 08:24:34;;;;;;;2.13;1.05;;;;;;;31.15;26.60;100583.78;6212085;23;20001;-72
2022/06/16 08:27:01;;;;;;;3.30;1.42;;;;;;;31.21;26.40;100576.34;6212093;23;20015;-71
2022/06/16 08:29:26;;;;;;;3.25;1.15;;;;;;;31.17;26.71;100559.38;6211704;23;20004;-71
2022/06/16 08:31:52;;;;;;;2.17;1.60;;;;;;;31.19;26.54;100572.97;6211939;23;20015;-71
2022/06/16 08:34:18;;;;;;;4.30;1.50;;;;;;;31.16;26.34;100568.81;6211805;23;20001;-71
2022/06/16 08:36:43;;;;;;;6.18;1.48;;;;;;;31.16;27.04;100576.28;6211529;23;20004;-72
2022/06/16 08:39:10;;;;;;;5.28;1.05;;;;;;;31.11;27.16;100573.47;6211870;23;20028;-71
2022/06/16 08:42:20;;;;;;;2.42;1.40;;;;;;;31.23;26.20;100577.75;6211516;23;20437;-71
2022/06/16 08:45:10;;;;;;;4.72;1.50;;;;;;;31.11;26.53;100576.25;6211743;23;20019;-72
2022/06/16 08:48:18;;;;;;;2.58;1.23;;;;;;;31.10;26.44;100592.03;6211066;23;20008;-71
2022/06/16 08:50:49;;;;;;;3.83;1.33;;;;;;;31.14;26.86;100578.50;6210821;23;20020;-71
2022/06/16 08:53:27;;;;;;;2.10;1.40;;;;;;;31.19;26.92;100576.59;6211743;23;20594;-71
2022/06/16 08:56:02;;;;;;;3.38;1.50;;;;;;;31.23;26.79;100572.19;6211384;23;20382;-71
2022/06/16 08:58:30;;;;;;;5.05;1.42;;;;;;;31.32;26.46;100581.75;6211444;23;20020;-71
2022/06/16 09:01:01;;;;;;;5.13;1.25;;;;;;;31.37;26.03;100573.44;6211552;23;20008;-71
2022/06/16 09:03:46;;;;;;;4.32;1.33;;;;;;;31.32;25.75;100567.88;6211216;23;20013;-71
2022/06/16 09:06:30;;;;;;;1.98;1.00;;;;;;;31.30;25.72;100566.47;6211515;23;20433;-71
2022/06/16 09:09:09;;;;;;;2.20;1.27;;;;;;;31.29;25.87;100565.63;6211299;23;20080;-73
2022/06/16 09:11:59;;;;;;;2.63;1.33;;;;;;;31.29;25.44;100564.78;6211239;23;20007;-72
2022/06/16 09:15:10;;;;;;;3.53;1.20;;;;;;;31.33;25.50;100560.41;6211242;23;20011;-72
2022/06/16 09:17:53;;;;;;;2.92;1.17;;;;;;;31.28;25.36;100565.91;6198669;23;20673;-72
2022/06/16 09:20:27;;;;;;;5.53;1.63;;;;;;;31.16;25.88;100546.63;6211297;23;20046;-72
2022/06/16 09:23:05;;;;;;;2.28;1.20;;;;;;;31.19;26.02;100556.34;6211228;23;20008;-72
2022/06/16 09:25:46;;;;;;;3.40;1.33;;;;;;;31.22;26.17;100553.06;6210922;23;20001;-72
2022/06/16 09:28:19;;;;;;;3.15;1.23;;;;;;;31.25;26.24;100553.38;6211185;23;20031;-72
2022/06/16 09:30:48;;;;;;;1.75;1.33;;;;;;;31.35;25.96;100558.19;6211057;23;20075;-72
2022/06/16 09:33:23;;;;;;;2.47;1.02;;;;;;;31.32;26.19;100548.47;6211170;23;20035;-72
2022/06/16 09:36:00;;;;;;;3.22;1.33;;;;;;;31.42;25.98;100558.81;6184627;23;20011;-72
2022/06/16 09:38:53;;;;;;;5.65;0.98;;;;;;;31.53;25.89;100558.63;6210999;23;20414;-72
2022/06/16 09:44:36;;;;;;;4.50;1.48;;;;;;;31.53;25.35;100528.09;6210801;23;20553;-73
2022/06/16 09:47:07;;;;;;;3.78;1.60;;;;;;;31.58;25.42;100532.84;6210819;23;20044;-72
2022/06/16 09:49:57;;;;;;;3.17;1.10;;;;;;;31.63;25.19;100535.69;6184044;23;20055;-73
2022/06/16 09:53:12;;;;;;;0.98;0.88;;;;;;;31.72;25.01;100548.78;6210608;23;20032;-72
2022/06/16 09:55:39;;;;;;;;;;;;;;;31.72;25.03;100540.44;6198867;23;20028;-72
2022/06/16 09:58:58;;;;;;;2.70;1.02;;;;;;;31.78;24.68;100541.31;6211166;23;20317;-73
2022/06/16 10:01:31;;;;;;;3.88;1.33;;;;;;;31.75;25.02;100528.81;6161303;23;20091;-73
2022/06/16 10:04:07;;;;;;;2.60;1.23;;;;;;;31.88;25.09;100542.25;6184196;23;20151;-73
2022/06/16 10:07:07;;;;;;;3.22;1.42;;;;;;;31.92;24.55;100537.81;6210776;23;20001;-73
2022/06/16 10:09:59;;;;;;;4.78;1.60;;;;;;;31.86;24.61;100532.53;6209223;23;20044;-73
2022/06/16 10:12:55;;;;;;;5.10;1.50;;;;;;;31.95;24.08;100539.25;6210713;23;20095;-73
2022/06/16 10:15:35;;;;;;;2.42;1.48;;;;;;;31.79;24.72;100534.69;6210895;23;20001;-73
2022/06/16 10:18:03;;;;;;;5.25;1.50;;;;;;;31.69;25.02;100538.19;6184295;23;20011;-73
2022/06/16 10:20:30;;;;;;;1.80;1.25;;;;;;;31.64;25.29;100527.09;6210694;23;20519;-73
2022/06/16 10:23:03;;;;;;;3.30;1.10;;;;;;;31.61;25.10;100529.56;6184399;23;20000;-73
2022/06/16 10:25:34;;;;;;;3.17;1.35;;;;;;;31.62;25.01;100526.50;6210501;23;20007;-73
2022/06/16 10:28:30;;;;;;;1.83;1.30;;;;;;;31.63;24.58;100519.84;6211657;23;20464;-73
2022/06/16 10:30:59;;;;;;;2.53;1.33;;;;;;;31.62;24.70;100532.06;6186187;23;20004;-73
2022/06/16 10:33:31;;;;;;;4.22;1.70;;;;;;;31.53;24.18;100510.66;6212387;23;20098;-73
2022/06/16 10:36:02;;;;;;;3.22;1.30;;;;;;;31.55;24.34;100520.38;6212225;23;20005;-73
2022/06/16 10:38:38;;;;;;;5.63;1.50;;;;;;;31.49;24.23;100518.66;6212739;23;20426;-73
2022/06/16 10:41:21;;;;;;;2.75;1.20;;;;;;;31.43;24.42;100513.34;6212832;23;20406;-73
2022/06/16 10:43:47;;;;;;;4.07;1.20;;;;;;;31.46;24.63;100510.88;6212859;23;20349;-72
2022/06/16 10:46:21;;;;;;;3.97;1.52;;;;;;;31.43;24.80;100500.31;6212741;23;20017;-73
2022/06/16 10:48:55;;;;;;;5.45;1.77;;;;;;;31.39;24.82;100504.72;6212551;23;20319;-73
2022/06/16 10:51:25;;;;;;;5.40;1.30;;;;;;;31.26;24.81;100499.59;6212789;23;20062;-73
2022/06/16 10:53:50;;;;;;;5.85;1.65;;;;;;;31.27;24.58;100501.28;6212803;23;20001;-73
2022/06/16 10:56:21;;;;;;;2.17;1.15;;;;;;;31.22;24.31;100503.16;6212867;23;20046;-72
2022/06/16 10:58:47;;;;;;;4.00;1.30;;;;;;;31.20;24.92;100508.13;6212549;23;20016;-71
2022/06/16 11:01:23;;;;;;;2.17;1.40;;;;;;;31.12;25.20;100492.84;6211125;23;20104;-72
2022/06/16 11:03:53;;;;;;;2.83;1.40;;;;;;;31.15;25.15;100486.75;6212545;23;20046;-71
2022/06/16 11:06:22;;;;;;;3.60;1.05;;;;;;;31.19;25.20;100489.81;6212589;23;20055;-72
2022/06/16 11:08:56;;;;;;;2.67;1.20;;;;;;;31.23;25.54;100488.19;6212406;23;20012;-72
2022/06/16 11:11:42;;;;;;;;;;;;;;;31.28;25.15;100499.34;6213044;23;20032;-73
2022/06/16 11:14:17;;;;;;;6.75;2.05;;;;;;;31.31;24.89;100491.38;6212526;23;19911;-72
2022/06/16 11:16:55;;;;;;;2.13;1.20;;;;;;;31.28;24.89;100488.28;6212193;23;20011;-72
2022/06/16 11:19:51;;;;;;;4.35;1.70;;;;;;;31.27;25.00;100486.59;6212384;23;20347;-73
2022/06/16 11:22:28;;;;;;;1.77;1.08;;;;;;;31.25;24.77;100480.44;6212422;23;20035;-72
2022/06/16 11:24:59;;;;;;;4.45;1.55;;;;;;;31.21;25.17;100484.88;6212446;23;20008;-72
2022/06/16 11:27:24;;;;;;;2.38;1.30;;;;;;;31.19;24.98;100485.13;6212100;23;20001;-73
2022/06/16 11:29:50;;;;;;;2.08;1.17;;;;;;;31.18;24.97;100486.25;6212422;23;20012;-73
2022/06/16 11:32:21;;;;;;;2.80;1.38;;;;;;;31.12;25.08;100487.28;6185540;23;20021;-73
2022/06/16 11:34:47;;;;;;;2.28;1.35;;;;;;;31.09;25.28;100479.50;6212353;23;20012;-74
2022/06/16 11:37:49;;;;;;;1.98;1.10;;;;;;;31.13;24.79;100483.41;6212293;23;20012;-73
2022/06/16 11:40:39;;;;;;;2.55;1.10;;;;;;;31.09;24.91;100475.88;6211910;23;20341;-73
2022/06/16 11:43:23;;;;;;;3.88;1.10;;;;;;;31.06;25.42;100477.25;6212368;23;20004;-73
2022/06/16 11:46:01;;;;;;;1.50;1.20;;;;;;;31.03;25.33;100466.69;6212058;23;20022;-73
2022/06/16 11:48:26;;;;;;;5.18;1.63;;;;;;;31.09;24.89;100465.66;6211786;23;20013;-73
2022/06/16 11:51:05;;;;;;;2.20;1.40;;;;;;;31.04;25.09;100462.81;6212219;23;20015;-73
2022/06/16 11:53:49;;;;;;;5.28;1.52;;;;;;;31.07;25.37;100464.22;6211962;23;20083;-73
2022/06/16 11:56:49;;;;;;;5.47;1.35;;;;;;;31.03;25.58;100454.78;6212156;23;19997;-73
2022/06/16 11:59:30;;;;;;;4.68;1.70;;;;;;;31.03;25.14;100438.97;6212185;23;20346;-74
2022/06/16 12:02:40;;;;;;;9.57;1.88;;;;;;;31.09;25.37;100440.69;6212102;23;20012;-74
2022/06/16 12:05:06;;;;;;;4.05;1.15;;;;;;;31.15;25.40;100447.97;6207388;23;20103;-73